EST,Max TemperatureF,Mean TemperatureF,Min TemperatureF,Max Dew PointF,MeanDew PointF,Min DewpointF,Max Humidity, Mean Humidity, Min Humidity, Max Sea Level PressureIn, Mean Sea Level PressureIn, Min Sea Level PressureIn, Max VisibilityMiles, Mean VisibilityMiles, Min VisibilityMiles, Max Wind SpeedMPH, Mean Wind SpeedMPH, Max Gust SpeedMPH,PrecipitationIn, CloudCover, Events, WindDirDegrees
2013-11-1,69,64,58,64,61,55,95,89,77,29.87,29.68,29.57,10,8,2,37,24,52,0.03,7,Rain,224
2013-11-2,60,55,50,59,52,46,100,87,68,29.73,29.67,29.61,10,9,3,13,5,16,0.04,6,Rain,222
2013-11-3,53,44,35,47,38,19,100,79,52,30.34,30.03,29.72,10,8,1,24,8,28,0.00,7,Rain,358
2013-11-4,43,38,32,28,25,21,81,59,34,30.70,30.58,30.36,10,10,10,20,9,25,0.00,7,,20
2013-11-5,48,40,32,33,29,25,100,71,39,30.70,30.64,30.54,10,10,10,8,4,,0.00,5,,309
2013-11-6,59,46,32,54,43,32,100,82,55,30.53,30.34,30.10,10,10,10,17,5,23,0.00,6,,202
2013-11-7,63,52,42,59,53,36,100,92,69,30.10,29.84,29.68,10,6,0,24,14,33,0.39,7,Fog-Rain,253
2013-11-8,50,42,33,34,27,19,87,57,29,30.11,29.94,29.82,10,10,10,21,11,31,0.08,2,,298
2013-11-9,47,40,32,33,25,19,87,59,32,30.21,30.15,30.08,10,10,10,20,9,22,0.00,2,,298
2013-11-10,58,48,37,46,38,32,87,70,44,30.06,29.87,29.73,10,10,2,18,8,28,0.05,5,Rain,249
2013-11-11,53,46,39,43,31,25,71,56,33,30.10,30.01,29.88,10,10,10,26,17,34,0.00,3,,268
2013-11-12,55,42,26,45,31,19,100,77,49,30.17,30.03,29.88,10,8,0,26,13,28,0.01,7,Rain-Snow,315
2013-11-13,35,29,23,25,16,12,74,58,30,30.27,30.22,30.16,10,10,1,15,9,22,0.00,1,,321
2013-11-14,51,42,32,34,27,18,81,54,32,30.21,30.13,30.07,10,10,10,25,14,31,0.00,1,,256
2013-11-15,58,50,41,46,39,28,93,69,41,30.24,30.20,30.16,10,10,9,20,11,26,0.00,2,,244
2013-11-16,59,46,32,46,37,28,100,72,33,30.34,30.29,30.22,10,9,0,14,6,,0.00,4,Fog,256
2013-11-17,59,46,32,57,46,32,100,92,59,30.33,30.20,29.90,10,4,0,16,5,21,0.03,7,Fog-Rain,139
2013-11-18,62,54,44,63,51,36,100,83,55,29.88,29.67,29.59,10,7,0,33,16,44,0.28,4,Fog-Rain,225
2013-11-19,48,40,32,36,22,18,70,50,26,30.27,29.95,29.68,10,10,9,17,10,28,0.00,1,,318
2013-11-20,39,32,26,22,16,14,69,53,35,30.60,30.48,30.28,10,10,10,18,8,22,0.00,2,,336
2013-11-21,47,36,24,32,26,18,87,67,37,30.63,30.55,30.41,10,10,10,10,4,,0.00,3,,300
2013-11-22,53,44,35,52,44,32,100,92,69,30.40,30.11,29.84,10,8,1,17,3,24,0.04,8,Rain,242
2013-11-23,51,42,32,48,27,9,100,56,21,29.88,29.82,29.79,10,10,7,22,11,32,0.01,4,,299
2013-11-24,32,26,21,16,3,-9,55,38,18,30.17,29.93,29.79,10,10,10,29,21,41,0.00,1,,307
2013-11-25,39,28,17,30,3,-8,81,41,17,30.38,30.33,30.18,10,10,10,23,14,31,0.00,1,,276
2013-11-26,48,44,39,46,32,25,100,72,49,30.35,30.28,30.05,10,9,4,22,12,26,0.04,7,Rain,215
2013-11-27,60,50,39,61,52,36,100,97,87,30.04,29.48,29.17,10,4,0,38,20,52,0.59,8,Fog-Rain,185
2013-11-28,39,32,24,36,17,9,87,55,32,30.44,30.06,29.50,10,10,10,24,16,36,0.00,2,,291
2013-11-29,35,29,23,15,11,7,63,48,25,30.72,30.57,30.44,10,10,10,13,6,16,0.00,3,,323
2013-11-30,36,26,17,28,16,9,86,64,30,30.76,30.66,30.46,10,10,10,10,5,,0.00,4,,72